AustriaFixed distance
Nassfeld Pramollo Sky Ultra
16 Sep2023
Distance
53.3km
Finishers
2115 men6 women
Winning time
7:23:31h
Pace distribution
21 finishers · 3.73–7.21 km/h
3.73 km/hmedian 5.267.21 km/h
Results
Ranks 1–21 of 21
| Rank | Runner | Time | Pace | Cat. | Placing |
|---|---|---|---|---|---|
| 1 | Salomon Team | 7:23:31h | 7.21 | M23 | 1st M · 1st M23 |
| 2 | Team Hammer Nutrition ... | 8:43:21h | 6.11 | M23 | 2nd M · 2nd M23 |
| 3 | 8:44:09h | 6.10 | M23 | 3rd M · 3rd M23 | |
| 4 | Team Esprit Montagne | 8:55:35h | 5.97 | M35 | 4th M · 1st M35 |
| 5 | HR. | 8:58:59h | 5.93 | M45 | 5th M · 1st M45 |
| 6 | 9:00:45h | 5.91 | M23 | 6th M · 4th M23 | |
| 7 | 9:44:03h | 5.48 | M55 | 7th M · 1st M55 | |
| 8 | Black Diamond | 9:44:11h | 5.47 | M40 | 8th M · 1st M40 |
| 9 | 9:44:12h | 5.47 | W35 | 1st F · 1st W35 | |
| 10 | KBF | 9:51:47h | 5.40 | M40 | 9th M · 2nd M40 |
| 11 | 10:07:33h | 5.26 | W23 | 2nd F · 1st W23 | |
| 12 | 10:23:48h | 5.13 | M40 | 10th M · 3rd M40 | |
| 13 | KBF | 10:31:37h | 5.06 | M23 | 11th M · 5th M23 |
| 14 | VAC | 10:55:11h | 4.88 | W23 | 3rd F · 2nd W23 |
| 15 | 11:02:11h | 4.83 | M23 | 12th M · 6th M23 | |
| 16 | 11:52:48h | 4.49 | W45 | 4th F · 1st W45 | |
| 17 | ESE - East Styrian Eagles | 12:25:23h | 4.29 | M23 | 13th M · 7th M23 |
| 18 | KBF | 12:26:17h | 4.29 | W23 | 5th F · 3rd W23 |
| 19 | 14:13:08h | 3.75 | M65 | 14th M · 1st M65 | |
| 20 | 14:17:50h | 3.73 | M35 | 15th M · 2nd M35 | |
| 21 | AST Süßen | 14:18:28h | 3.73 | W55 | 6th F · 1st W55 |
- 1Salomon Team1st M · 1st M23Time7:23:31hPace7.21Cat.M23
- 2Team Hammer Nutrition ...2nd M · 2nd M23Time8:43:21hPace6.11Cat.M23
- 33rd M · 3rd M23Time8:44:09hPace6.10Cat.M23
- 4Team Esprit Montagne4th M · 1st M35Time8:55:35hPace5.97Cat.M35
- 5HR.5th M · 1st M45Time8:58:59hPace5.93Cat.M45
- 66th M · 4th M23Time9:00:45hPace5.91Cat.M23
- 77th M · 1st M55Time9:44:03hPace5.48Cat.M55
- 8Black Diamond8th M · 1st M40Time9:44:11hPace5.47Cat.M40
- 91st F · 1st W35Time9:44:12hPace5.47Cat.W35
- 10KBF9th M · 2nd M40Time9:51:47hPace5.40Cat.M40
- 112nd F · 1st W23Time10:07:33hPace5.26Cat.W23
- 1210th M · 3rd M40Time10:23:48hPace5.13Cat.M40
- 13KBF11th M · 5th M23Time10:31:37hPace5.06Cat.M23
- 14VAC3rd F · 2nd W23Time10:55:11hPace4.88Cat.W23
- 1512th M · 6th M23Time11:02:11hPace4.83Cat.M23
- 164th F · 1st W45Time11:52:48hPace4.49Cat.W45
- 17ESE - East Styrian Eagles13th M · 7th M23Time12:25:23hPace4.29Cat.M23
- 18KBF5th F · 3rd W23Time12:26:17hPace4.29Cat.W23
- 1914th M · 1st M65Time14:13:08hPace3.75Cat.M65
- 2015th M · 2nd M35Time14:17:50hPace3.73Cat.M35
- 21AST Süßen6th F · 1st W55Time14:18:28hPace3.73Cat.W55